createdAt,value
2024-01-24T00:02:23.255Z,102836.25
2024-01-24T00:04:51.199Z,102845.54
2024-01-24T00:07:19.163Z,102852.02
2024-01-24T00:09:47.220Z,102850.34
2024-01-24T00:12:15.315Z,102848.25
2024-01-24T00:14:43.360Z,102844.10
2024-01-24T00:17:11.365Z,102841.65
2024-01-24T00:19:39.649Z,102830.56
2024-01-24T00:22:07.680Z,102817.91
2024-01-24T00:24:35.655Z,102819.90
2024-01-24T00:27:03.621Z,102811.34
2024-01-24T00:29:31.555Z,102810.06
2024-01-24T00:31:59.500Z,102810.02
2024-01-24T00:34:27.517Z,102828.34
2024-01-24T00:36:55.678Z,102822.59
2024-01-24T00:39:23.708Z,102818.95
2024-01-24T00:41:51.674Z,102812.38
2024-01-24T00:44:19.696Z,102804.63
2024-01-24T00:46:47.680Z,102808.66
2024-01-24T00:49:15.865Z,102806.16
2024-01-24T00:51:43.989Z,102804.56
2024-01-24T00:54:12.295Z,102791.09
2024-01-24T00:56:40.591Z,102797.57
2024-01-24T00:59:08.618Z,102783.70
2024-01-24T01:01:36.607Z,102773.44
2024-01-24T01:04:06.347Z,102766.90
2024-01-24T01:06:34.482Z,102762.77
2024-01-24T01:09:03.253Z,102748.87
2024-01-24T01:11:31.335Z,102744.40
2024-01-24T01:13:59.340Z,102748.06
2024-01-24T01:16:27.499Z,102730.53
2024-01-24T01:18:55.505Z,102734.23
2024-01-24T01:21:23.559Z,102746.88
2024-01-24T01:23:51.580Z,102735.08
2024-01-24T01:26:19.660Z,102722.03
2024-01-24T01:28:47.624Z,102725.76
2024-01-24T01:31:15.586Z,102745.37
2024-01-24T01:33:43.811Z,102743.35
2024-01-24T01:36:18.230Z,102729.06
2024-01-24T01:38:51.579Z,102713.59
2024-01-24T01:41:19.736Z,102717.19
2024-01-24T01:43:47.679Z,102704.96
2024-01-24T01:46:24.220Z,102698.81
2024-01-24T01:48:52.631Z,102692.30
2024-01-24T01:51:21.402Z,102692.38
2024-01-24T01:53:50.606Z,102695.22
2024-01-24T01:56:21.392Z,102696.91
2024-01-24T01:58:50.749Z,102696.59
2024-01-24T02:01:19.894Z,102701.98
2024-01-24T02:03:50.987Z,102702.51
2024-01-24T02:06:19.262Z,102694.46
2024-01-24T02:08:47.542Z,102692.05
2024-01-24T02:11:15.458Z,102692.90
2024-01-24T02:13:43.507Z,102688.05
2024-01-24T02:16:12.762Z,102696.23
2024-01-24T02:18:40.850Z,102687.70
2024-01-24T02:21:09.006Z,102686.06
2024-01-24T02:23:38.113Z,102699.53
2024-01-24T02:26:06.703Z,102687.23
2024-01-24T02:28:34.628Z,102698.98
2024-01-24T02:31:02.558Z,102688.74
2024-01-24T02:33:30.529Z,102679.32
2024-01-24T02:35:58.505Z,102679.65
2024-01-24T02:38:26.487Z,102666.11
2024-01-24T02:40:54.421Z,102669.77
2024-01-24T02:43:22.403Z,102662.38
2024-01-24T02:45:50.618Z,102664.77
2024-01-24T02:48:19.948Z,102663.86
2024-01-24T02:50:48.151Z,102664.97
2024-01-24T02:53:16.129Z,102653.85
2024-01-24T02:55:44.066Z,102652.12
2024-01-24T02:58:12.253Z,102638.52
2024-01-24T03:00:40.586Z,102626.16
2024-01-24T03:03:09.133Z,102639.59
2024-01-24T03:05:37.110Z,102638.29
2024-01-24T03:08:05.409Z,102644.70
2024-01-24T03:10:33.357Z,102637.70
2024-01-24T03:13:01.296Z,102642.87
2024-01-24T03:15:29.475Z,102638.71
2024-01-24T03:17:57.525Z,102611.66
2024-01-24T03:20:25.518Z,102617.33
2024-01-24T03:22:53.598Z,102618.86
2024-01-24T03:25:21.588Z,102616.28
2024-01-24T03:27:49.674Z,102603.16
2024-01-24T03:30:18.031Z,102596.92
2024-01-24T03:32:46.142Z,102598.03
2024-01-24T03:35:14.231Z,102598.03
2024-01-24T03:37:42.239Z,102570.14
2024-01-24T03:40:10.755Z,102558.70
2024-01-24T03:42:38.729Z,102564.35
2024-01-24T03:45:07.257Z,102571.67
2024-01-24T03:47:35.239Z,102575.70
2024-01-24T03:50:03.176Z,102573.28
2024-01-24T03:52:31.567Z,102591.69
2024-01-24T03:54:59.576Z,102574.91
2024-01-24T03:57:27.552Z,102580.18
2024-01-24T03:59:56.424Z,102598.59
2024-01-24T04:02:24.371Z,102599.41
2024-01-24T04:04:52.502Z,102605.48
2024-01-24T04:07:20.516Z,102628.38
2024-01-24T04:09:48.628Z,102625.86
2024-01-24T04:12:16.712Z,102635.70
2024-01-24T04:14:44.706Z,102629.55
2024-01-24T04:17:12.599Z,102624.62
2024-01-24T04:19:40.654Z,102624.20
2024-01-24T04:22:10.056Z,102624.62
2024-01-24T04:24:38.181Z,102611.51
2024-01-24T04:27:06.250Z,102623.02
2024-01-24T04:29:34.206Z,102603.82
2024-01-24T04:32:02.176Z,102618.47
2024-01-24T04:34:30.371Z,102617.29
2024-01-24T04:36:58.451Z,102611.93
2024-01-24T04:39:26.492Z,102604.15
2024-01-24T04:42:01.711Z,102612.29
2024-01-24T04:44:36.803Z,102617.55
2024-01-24T04:47:04.916Z,102618.73
2024-01-24T04:49:43.807Z,102634.30
2024-01-24T04:52:13.526Z,102628.12
2024-01-24T04:54:44.178Z,102635.54
2024-01-24T04:57:12.374Z,102662.84
2024-01-24T04:59:50.145Z,102664.45
2024-01-24T05:02:24.376Z,102650.94
2024-01-24T05:04:52.832Z,102654.96
2024-01-24T05:07:20.879Z,102659.80
2024-01-24T05:09:49.219Z,102659.80
2024-01-24T05:12:17.462Z,102644.99
2024-01-24T05:14:45.511Z,102647.67
2024-01-24T05:17:13.520Z,102631.58
2024-01-24T05:19:45.048Z,102627.82
2024-01-24T05:22:13.073Z,102624.95
2024-01-24T05:24:41.153Z,102639.20
2024-01-24T05:27:09.100Z,102630.54
2024-01-24T05:29:37.156Z,102636.16
2024-01-24T05:32:05.381Z,102646.27
2024-01-24T05:34:33.499Z,102661.38
2024-01-24T05:37:02.367Z,102668.27
2024-01-24T05:39:30.487Z,102666.60
2024-01-24T05:41:58.700Z,102667.29
2024-01-24T05:44:26.738Z,102673.30
2024-01-24T05:46:54.694Z,102672.03
2024-01-24T05:49:22.861Z,102665.46
2024-01-24T05:51:50.948Z,102680.47
2024-01-24T05:54:19.155Z,102697.11
2024-01-24T05:56:47.250Z,102712.19
2024-01-24T05:59:16.026Z,102723.99
2024-01-24T06:01:45.351Z,102722.65
2024-01-24T06:04:13.780Z,102704.14
2024-01-24T06:06:42.803Z,102713.43
2024-01-24T06:09:11.013Z,102703.13
2024-01-24T06:11:39.789Z,102708.36
2024-01-24T06:14:07.834Z,102729.20
2024-01-24T06:16:35.845Z,102720.95
2024-01-24T06:19:04.114Z,102712.71
2024-01-24T06:21:32.035Z,102700.80
2024-01-24T06:24:00.045Z,102692.21
2024-01-24T06:26:28.017Z,102679.12
2024-01-24T06:28:56.015Z,102684.06
2024-01-24T06:31:25.133Z,102671.45
2024-01-24T06:33:53.218Z,102680.50
2024-01-24T06:36:23.306Z,102690.70
2024-01-24T06:38:51.289Z,102689.43
2024-01-24T06:41:19.358Z,102696.33
2024-01-24T06:43:47.768Z,102700.80
2024-01-24T06:46:15.869Z,102715.13
2024-01-24T06:48:43.933Z,102707.71
2024-01-24T06:51:14.792Z,102711.27
2024-01-24T06:53:42.787Z,102727.13
2024-01-24T06:56:11.023Z,102732.33
2024-01-24T06:58:43.195Z,102729.39
2024-01-24T07:01:11.757Z,102741.55
2024-01-24T07:03:40.274Z,102733.64
2024-01-24T07:06:08.507Z,102733.45
2024-01-24T07:08:40.090Z,102735.08
2024-01-24T07:11:09.861Z,102741.88
2024-01-24T07:13:39.505Z,102735.93
2024-01-24T07:16:09.805Z,102735.41
2024-01-24T07:18:37.867Z,102739.79
2024-01-24T07:21:09.070Z,102738.41
2024-01-24T07:23:36.992Z,102748.55
2024-01-24T07:26:05.476Z,102754.96
2024-01-24T07:28:33.750Z,102748.68
2024-01-24T07:31:01.802Z,102737.47
2024-01-24T07:33:30.111Z,102729.98
2024-01-24T07:35:58.172Z,102743.45
2024-01-24T07:38:26.151Z,102743.68
2024-01-24T07:40:54.165Z,102752.08
2024-01-24T07:43:22.664Z,102747.83
2024-01-24T07:45:50.690Z,102747.38
2024-01-24T07:48:19.312Z,102752.54
2024-01-24T07:50:47.445Z,102766.80
2024-01-24T07:53:15.482Z,102763.82
2024-01-24T07:55:53.560Z,102751.43
2024-01-24T07:58:27.362Z,102751.36
2024-01-24T08:00:57.230Z,102763.16
2024-01-24T08:03:25.369Z,102755.87
2024-01-24T08:05:53.562Z,102723.66
2024-01-24T08:08:21.799Z,102737.34
2024-01-24T08:10:50.277Z,102727.95
2024-01-24T08:13:18.712Z,102737.47
2024-01-24T08:15:48.092Z,102709.77
2024-01-24T08:18:16.917Z,102727.82
2024-01-24T08:20:44.989Z,102715.98
2024-01-24T08:23:14.118Z,102721.37
2024-01-24T08:25:42.118Z,102711.96
2024-01-24T08:28:10.670Z,102724.38
2024-01-24T08:30:38.930Z,102719.77
2024-01-24T08:33:07.186Z,102687.37
2024-01-24T08:35:38.143Z,102688.97
2024-01-24T08:38:06.258Z,102686.91
2024-01-24T08:40:34.340Z,102690.24
2024-01-24T08:43:02.609Z,102704.50
2024-01-24T08:45:30.647Z,102710.12
2024-01-24T08:47:58.850Z,102723.70
2024-01-24T08:50:26.921Z,102732.66
2024-01-24T08:52:55.092Z,102740.34
2024-01-24T08:55:23.257Z,102741.03
2024-01-24T08:57:51.947Z,102743.45
2024-01-24T09:00:20.420Z,102732.30
2024-01-24T09:02:49.363Z,102706.76
2024-01-24T09:05:21.125Z,102751.72
2024-01-24T09:07:49.398Z,102729.06
2024-01-24T09:10:18.181Z,102728.60
2024-01-24T09:12:46.370Z,102735.63
2024-01-24T09:15:14.884Z,102728.47
2024-01-24T09:17:43.061Z,102731.68
2024-01-24T09:20:12.036Z,102729.16
2024-01-24T09:22:40.554Z,102722.00
2024-01-24T09:25:10.543Z,102707.51
2024-01-24T09:27:41.787Z,102714.74
2024-01-24T09:30:10.223Z,102708.07
2024-01-24T09:32:38.344Z,102707.94
2024-01-24T09:35:07.144Z,102705.38
2024-01-24T09:37:36.217Z,102706.11
2024-01-24T09:40:04.617Z,102694.92
2024-01-24T09:42:40.518Z,102705.48
2024-01-24T09:45:10.048Z,102693.52
2024-01-24T09:47:39.761Z,102704.54
2024-01-24T09:50:10.415Z,102679.12
2024-01-24T09:52:38.462Z,102698.78
2024-01-24T09:55:09.405Z,102688.09
2024-01-24T09:57:38.479Z,102709.38
2024-01-24T10:00:07.247Z,102677.76
2024-01-24T10:02:35.396Z,102720.27
2024-01-24T10:05:07.272Z,102716.14
2024-01-24T10:07:35.417Z,102697.15
2024-01-24T10:10:15.414Z,102688.38
2024-01-24T10:12:46.992Z,102684.55
2024-01-24T10:15:15.940Z,102686.65
2024-01-24T10:17:45.258Z,102679.95
2024-01-24T10:20:14.639Z,102685.70
2024-01-24T10:22:45.892Z,102703.75
2024-01-24T10:25:14.250Z,102693.52
2024-01-24T10:27:44.451Z,102714.80
2024-01-24T10:30:14.622Z,102711.34
2024-01-24T10:32:48.852Z,102699.37
2024-01-24T10:35:18.509Z,102718.34
2024-01-24T10:37:46.913Z,102715.69
2024-01-24T10:40:17.800Z,102726.28
2024-01-24T10:42:47.317Z,102725.01
2024-01-24T10:45:17.799Z,102736.42
2024-01-24T10:47:47.466Z,102731.77
2024-01-24T10:50:17.341Z,102720.63
2024-01-24T10:52:45.927Z,102714.05
2024-01-24T10:55:16.041Z,102716.11
2024-01-24T10:57:46.124Z,102697.70
2024-01-24T11:00:18.236Z,102708.72
2024-01-24T11:02:46.365Z,102707.61
2024-01-24T11:05:22.102Z,102706.01
2024-01-24T11:08:18.977Z,102720.85
2024-01-24T11:10:48.923Z,102706.14
2024-01-24T11:13:21.180Z,102721.93
2024-01-24T11:15:49.694Z,102714.22
2024-01-24T11:18:21.912Z,102717.68
2024-01-24T11:21:00.884Z,102708.59
2024-01-24T11:23:35.591Z,102708.23
2024-01-24T11:26:04.553Z,102666.70
2024-01-24T11:28:32.588Z,102684.75
2024-01-24T11:31:00.934Z,102671.64
2024-01-24T11:33:29.326Z,102656.92
2024-01-24T11:35:58.342Z,102681.55
2024-01-24T11:38:29.354Z,102687.86
2024-01-24T11:41:12.649Z,102673.11
2024-01-24T11:43:45.213Z,102655.52
2024-01-24T11:46:14.359Z,102684.20
2024-01-24T11:48:42.948Z,102672.30
2024-01-24T11:51:13.854Z,102671.97
2024-01-24T11:53:41.968Z,102675.34
2024-01-24T11:56:16.948Z,102676.12
2024-01-24T11:58:45.455Z,102660.13
2024-01-24T12:01:14.276Z,102680.27
2024-01-24T12:03:50.651Z,102671.97
2024-01-24T12:06:20.002Z,102684.63
2024-01-24T12:08:50.505Z,102696.95
2024-01-24T12:11:20.004Z,102693.16
2024-01-24T12:13:48.686Z,102686.91
2024-01-24T12:16:17.077Z,102707.05
2024-01-24T12:18:45.630Z,102706.47
2024-01-24T12:21:13.970Z,102698.29
2024-01-24T12:23:48.961Z,102717.65
2024-01-24T12:26:18.394Z,102697.51
2024-01-24T12:28:47.433Z,102706.14
2024-01-24T12:31:15.636Z,102697.02
2024-01-24T12:33:44.021Z,102705.81
2024-01-24T12:36:12.965Z,102681.84
2024-01-24T12:38:41.945Z,102682.62
2024-01-24T12:41:10.033Z,102675.59
2024-01-24T12:43:38.863Z,102695.74
2024-01-24T12:46:10.587Z,102690.73
2024-01-24T12:48:39.817Z,102683.77
2024-01-24T12:51:09.023Z,102673.66
2024-01-24T12:53:37.354Z,102669.32
2024-01-24T12:56:05.686Z,102693.26
2024-01-24T12:58:34.122Z,102694.07
2024-01-24T13:01:02.464Z,102691.20
2024-01-24T13:03:30.798Z,102681.74
2024-01-24T13:05:59.741Z,102689.59
2024-01-24T13:08:28.519Z,102675.66
2024-01-24T13:10:57.984Z,102680.27
2024-01-24T13:13:26.214Z,102671.84
2024-01-24T13:15:55.820Z,102681.41
2024-01-24T13:18:24.336Z,102653.13
2024-01-24T13:20:52.568Z,102658.88
2024-01-24T13:23:20.687Z,102647.37
2024-01-24T13:25:48.963Z,102657.61
2024-01-24T13:28:18.586Z,102653.79
2024-01-24T13:30:46.683Z,102656.80
2024-01-24T13:33:14.853Z,102670.73
2024-01-24T13:35:43.277Z,102665.10
2024-01-24T13:38:11.658Z,102655.19
2024-01-24T13:40:40.457Z,102647.70
2024-01-24T13:43:09.314Z,102659.09
2024-01-24T13:45:40.819Z,102643.23
2024-01-24T13:48:10.409Z,102648.03
2024-01-24T13:50:40.147Z,102638.58
2024-01-24T13:53:08.755Z,102652.51
2024-01-24T13:55:36.800Z,102645.80
2024-01-24T13:58:05.963Z,102657.19
2024-01-24T14:00:34.317Z,102664.55
2024-01-24T14:03:02.468Z,102655.45
2024-01-24T14:05:30.871Z,102659.61
2024-01-24T14:07:59.013Z,102645.22
2024-01-24T14:10:27.272Z,102649.05
2024-01-24T14:12:55.391Z,102653.16
2024-01-24T14:15:32.890Z,102647.41
2024-01-24T14:18:03.815Z,102652.84
2024-01-24T14:20:31.918Z,102671.38
2024-01-24T14:22:59.913Z,102661.60
2024-01-24T14:25:28.150Z,102669.12
2024-01-24T14:27:56.827Z,102654.05
2024-01-24T14:30:25.192Z,102672.23
2024-01-24T14:32:53.600Z,102673.63
2024-01-24T14:35:21.825Z,102675.50
2024-01-24T14:37:50.016Z,102673.02
2024-01-24T14:40:18.148Z,102678.90
2024-01-24T14:42:46.241Z,102675.34
2024-01-24T14:45:14.320Z,102666.73
2024-01-24T14:47:42.320Z,102673.73
2024-01-24T14:50:11.131Z,102664.31
2024-01-24T14:52:39.716Z,102683.28
2024-01-24T14:55:08.868Z,102691.55
2024-01-24T14:59:19.062Z,102691.00
2024-01-24T15:01:47.136Z,102688.35
2024-01-24T15:04:15.993Z,102677.20
2024-01-24T15:06:44.015Z,102669.71
2024-01-24T15:09:12.855Z,102668.44
2024-01-24T15:11:40.815Z,102673.73
2024-01-24T15:14:08.903Z,102679.48
2024-01-24T15:16:36.985Z,102685.08
2024-01-24T15:19:05.910Z,102694.53
2024-01-24T15:21:34.597Z,102698.20
2024-01-24T15:24:03.996Z,102696.95
2024-01-24T15:26:32.060Z,102701.76
2024-01-24T15:29:00.200Z,102716.93
2024-01-24T15:31:28.307Z,102701.76
2024-01-24T15:33:56.551Z,102711.99
2024-01-24T15:36:24.839Z,102711.99
2024-01-24T15:38:53.228Z,102714.54
2024-01-24T15:41:21.375Z,102716.70
2024-01-24T15:43:49.510Z,102720.52
2024-01-24T15:46:18.489Z,102726.28
2024-01-24T15:48:46.798Z,102725.95
2024-01-24T15:51:15.042Z,102724.45
2024-01-24T15:53:42.935Z,102722.85
2024-01-24T15:56:11.624Z,102719.97
2024-01-24T15:58:40.163Z,102729.52
2024-01-24T16:01:08.384Z,102729.88
2024-01-24T16:03:37.715Z,102741.48
2024-01-24T16:06:06.481Z,102736.88
2024-01-24T16:08:35.976Z,102731.58
2024-01-24T16:11:05.264Z,102735.63
2024-01-24T16:13:33.513Z,102735.14
2024-01-24T16:16:03.265Z,102738.94
2024-01-24T16:18:32.161Z,102730.30
2024-01-24T16:21:01.450Z,102743.91
2024-01-24T16:23:29.631Z,102747.57
2024-01-24T16:25:58.305Z,102742.14
2024-01-24T16:28:26.329Z,102747.44
2024-01-24T16:30:54.370Z,102734.69
2024-01-24T16:33:22.940Z,102737.10
2024-01-24T16:35:51.027Z,102742.37
2024-01-24T16:38:19.592Z,102746.06
2024-01-24T16:40:47.573Z,102741.09
2024-01-24T16:43:15.577Z,102745.12
2024-01-24T16:45:43.739Z,102744.79
2024-01-24T16:48:11.900Z,102752.84
2024-01-24T16:50:41.387Z,102736.84
2024-01-24T16:53:10.893Z,102735.11
2024-01-24T16:55:39.195Z,102739.59
2024-01-24T16:58:07.271Z,102740.08
2024-01-24T17:00:35.431Z,102743.74
2024-01-24T17:03:03.470Z,102758.95
2024-01-24T17:05:31.375Z,102757.77
2024-01-24T17:07:59.837Z,102759.73
2024-01-24T17:10:27.914Z,102768.83
2024-01-24T17:12:56.476Z,102770.88
2024-01-24T17:15:24.396Z,102753.20
2024-01-24T17:17:52.600Z,102759.41
2024-01-24T17:20:20.556Z,102761.01
2024-01-24T17:22:48.793Z,102764.70
2024-01-24T17:25:19.521Z,102765.95
2024-01-24T17:27:47.578Z,102766.54
2024-01-24T17:30:15.970Z,102765.75
2024-01-24T17:32:44.308Z,102779.98
2024-01-24T17:35:12.316Z,102781.35
2024-01-24T17:37:40.482Z,102783.54
2024-01-24T17:40:10.025Z,102781.52
2024-01-24T17:42:38.253Z,102774.94
2024-01-24T17:45:06.882Z,102784.00
2024-01-24T17:47:35.508Z,102765.16
2024-01-24T17:50:04.667Z,102792.30
2024-01-24T17:52:32.802Z,102791.52
2024-01-24T17:55:03.786Z,102801.85
2024-01-24T17:57:32.230Z,102802.99
2024-01-24T18:00:02.270Z,102808.03
2024-01-24T18:02:30.341Z,102822.91
2024-01-24T18:04:59.447Z,102830.70
2024-01-24T18:07:27.605Z,102822.19
2024-01-24T18:09:57.616Z,102822.71
2024-01-24T18:12:25.694Z,102819.54
2024-01-24T18:14:54.341Z,102815.84
2024-01-24T18:17:22.282Z,102824.94
2024-01-24T18:19:51.736Z,102827.78
2024-01-24T18:22:19.925Z,102832.07
2024-01-24T18:24:49.019Z,102829.02
2024-01-24T18:27:17.006Z,102816.96
2024-01-24T18:29:46.605Z,102821.96
2024-01-24T18:32:15.847Z,102820.10
2024-01-24T18:34:45.060Z,102819.84
2024-01-24T18:37:13.257Z,102828.99
2024-01-24T18:39:41.390Z,102819.64
2024-01-24T18:42:10.047Z,102831.58
2024-01-24T18:44:38.275Z,102825.59
2024-01-24T18:47:07.831Z,102822.71
2024-01-24T18:49:35.946Z,102835.04
2024-01-24T18:52:04.715Z,102833.02
2024-01-24T18:54:32.995Z,102833.80
2024-01-24T18:57:01.119Z,102841.16
2024-01-24T18:59:29.102Z,102839.20
2024-01-24T19:01:57.483Z,102833.44
2024-01-24T19:04:25.786Z,102840.80
2024-01-24T19:06:54.042Z,102835.53
2024-01-24T19:09:22.183Z,102842.86
2024-01-24T19:11:50.164Z,102827.72
2024-01-24T19:14:19.872Z,102839.66
2024-01-24T19:16:48.361Z,102833.63
2024-01-24T19:19:16.791Z,102836.94
2024-01-24T19:21:48.486Z,102835.34
2024-01-24T19:24:16.856Z,102827.98
2024-01-24T19:26:45.459Z,102839.88
2024-01-24T19:29:14.583Z,102842.83
2024-01-24T19:31:42.931Z,102850.70
2024-01-24T19:34:11.185Z,102848.74
2024-01-24T19:36:39.834Z,102839.78
2024-01-24T19:39:07.754Z,102855.80
2024-01-24T19:41:35.664Z,102855.80
2024-01-24T19:44:03.638Z,102847.24
2024-01-24T19:46:31.645Z,102854.20
2024-01-24T19:49:00.285Z,102845.60
2024-01-24T19:51:28.399Z,102840.66
2024-01-24T19:53:57.564Z,102845.15
2024-01-24T19:56:25.944Z,102842.37
2024-01-24T19:58:54.690Z,102847.73
2024-01-24T20:01:22.825Z,102863.33
2024-01-24T20:03:51.082Z,102869.48
2024-01-24T20:06:19.605Z,102858.91
2024-01-24T20:08:48.690Z,102854.50
2024-01-24T20:11:18.686Z,102875.82
2024-01-24T20:13:46.695Z,102866.04
2024-01-24T20:16:14.841Z,102870.16
2024-01-24T20:18:43.052Z,102867.77
2024-01-24T20:21:11.212Z,102868.59
2024-01-24T20:23:39.140Z,102865.35
2024-01-24T20:26:08.104Z,102858.39
2024-01-24T20:28:36.117Z,102842.47
2024-01-24T20:31:04.207Z,102843.71
2024-01-24T20:33:39.394Z,102855.68
2024-01-24T20:36:14.227Z,102845.48
2024-01-24T20:38:43.386Z,102856.13
2024-01-24T20:41:12.473Z,102859.01
2024-01-24T20:43:41.661Z,102856.49
2024-01-24T20:46:10.962Z,102859.80
2024-01-24T20:48:39.801Z,102870.00
2024-01-24T20:51:08.060Z,102880.23
2024-01-24T20:53:36.117Z,102884.42
2024-01-24T20:56:06.410Z,102864.37
2024-01-24T20:58:35.748Z,102852.51
2024-01-24T21:01:05.668Z,102861.10
2024-01-24T21:03:34.765Z,102863.98
2024-01-24T21:06:03.115Z,102870.16
2024-01-24T21:08:31.998Z,102867.74
2024-01-24T21:11:03.652Z,102876.31
2024-01-24T21:13:33.137Z,102877.59
2024-01-24T21:16:03.280Z,102876.73
2024-01-24T21:18:31.625Z,102873.46
2024-01-24T21:20:59.741Z,102876.73
2024-01-24T21:23:28.560Z,102886.52
2024-01-24T21:25:56.614Z,102882.88
2024-01-24T21:28:24.597Z,102893.05
2024-01-24T21:30:52.868Z,102904.53
2024-01-24T21:33:21.001Z,102898.35
2024-01-24T21:35:48.981Z,102899.59
2024-01-24T21:38:17.090Z,102908.55
2024-01-24T21:40:45.151Z,102915.45
2024-01-24T21:43:13.231Z,102910.55
2024-01-24T21:45:41.180Z,102904.83
2024-01-24T21:48:09.722Z,102910.09
2024-01-24T21:50:37.670Z,102891.22
2024-01-24T21:53:06.642Z,102897.40
2024-01-24T21:55:34.711Z,102901.88
2024-01-24T21:58:02.809Z,102901.49
2024-01-24T22:00:30.909Z,102892.53
2024-01-24T22:02:59.148Z,102883.60
2024-01-24T22:05:27.166Z,102882.39
2024-01-24T22:07:56.905Z,102890.57
2024-01-24T22:10:25.055Z,102890.63
2024-01-24T22:12:53.076Z,102909.50
2024-01-24T22:15:21.039Z,102899.76
2024-01-24T22:17:49.037Z,102904.73
2024-01-24T22:20:17.174Z,102896.59
2024-01-24T22:22:45.186Z,102897.04
2024-01-24T22:25:13.311Z,102910.16
2024-01-24T22:27:41.705Z,102917.94
2024-01-24T22:30:10.653Z,102912.28
2024-01-24T22:32:38.633Z,102895.90
2024-01-24T22:35:07.273Z,102906.62
2024-01-24T22:37:35.271Z,102924.64
2024-01-24T22:40:03.626Z,102914.86
2024-01-24T22:42:31.675Z,102917.77
2024-01-24T22:44:59.695Z,102927.19
2024-01-24T22:47:27.710Z,102922.68
2024-01-24T22:49:55.845Z,102922.25
2024-01-24T22:52:23.989Z,102934.58
2024-01-24T22:54:52.937Z,102926.08
2024-01-24T22:57:21.094Z,102917.55
2024-01-24T22:59:49.086Z,102933.93
2024-01-24T23:02:19.482Z,102918.36
2024-01-24T23:04:47.849Z,102928.63
2024-01-24T23:07:16.129Z,102924.94
2024-01-24T23:09:44.287Z,102916.04
2024-01-24T23:12:12.461Z,102910.71
2024-01-24T23:14:43.693Z,102908.65
2024-01-24T23:17:11.785Z,102905.41
2024-01-24T23:19:39.986Z,102911.13
2024-01-24T23:22:08.205Z,102927.48
2024-01-24T23:24:36.256Z,102914.44
2024-01-24T23:27:04.319Z,102916.92
2024-01-24T23:29:32.716Z,102904.30
2024-01-24T23:32:00.862Z,102908.36
2024-01-24T23:34:29.000Z,102905.91
2024-01-24T23:36:57.131Z,102915.32
2024-01-24T23:39:26.845Z,102916.99
2024-01-24T23:41:55.009Z,102920.69
2024-01-24T23:44:22.913Z,102919.44
2024-01-24T23:46:50.912Z,102923.07
2024-01-24T23:49:19.284Z,102914.96
2024-01-24T23:51:47.681Z,102934.16
2024-01-24T23:54:15.992Z,102921.11
2024-01-24T23:56:44.015Z,102924.84
2024-01-24T23:59:12.127Z,102921.21
